Time;durP1;ratioP1;P1;durP2;ratioP2;P2;SDS_P1;SDS_P2;PMS_P1;PMS_P2;Temp;Humidity;BMP_temperature;BMP_pressure;BME280_temperature;BME280_humidity;BME280_pressure;Samples;Min_cycle;Max_cycle;Signal;HPM_P1;HPM_P2
2023/07/18 00:02:08;;;;;;;11.00;4.85;;;;;;;13.44;100.00;102109.06;5047470;28;20044;-73
2023/07/18 00:04:33;;;;;;;7.85;4.80;;;;;;;13.42;100.00;102113.50;5042593;28;20025;-73
2023/07/18 00:06:58;;;;;;;8.18;3.95;;;;;;;13.38;100.00;102115.28;5043692;28;20025;-73
2023/07/18 00:09:24;;;;;;;10.23;3.83;;;;;;;13.37;100.00;102112.69;5042904;28;20029;-73
2023/07/18 00:11:50;;;;;;;6.43;3.90;;;;;;;13.31;100.00;102113.66;5035105;28;20453;-73
2023/07/18 00:14:15;;;;;;;7.40;4.38;;;;;;;13.27;100.00;102115.44;5046923;28;20385;-73
2023/07/18 00:16:41;;;;;;;9.32;5.28;;;;;;;13.28;100.00;102117.19;5037302;28;20017;-74
2023/07/18 00:19:07;;;;;;;11.45;6.05;;;;;;;13.22;100.00;102118.97;5040376;28;20033;-74
2023/07/18 00:21:33;;;;;;;14.57;8.60;;;;;;;13.18;100.00;102118.16;5034725;28;20091;-74
2023/07/18 00:23:59;;;;;;;14.13;8.88;;;;;;;13.19;100.00;102119.03;5040784;28;20367;-74
2023/07/18 00:26:24;;;;;;;18.67;12.00;;;;;;;13.12;100.00;102118.25;5041389;28;20028;-74
2023/07/18 00:28:53;;;;;;;20.20;11.40;;;;;;;13.00;100.00;102111.41;5044835;28;20032;-74
2023/07/18 00:31:19;;;;;;;15.63;9.07;;;;;;;12.99;100.00;102124.53;5042430;28;20094;-74
2023/07/18 00:33:44;;;;;;;12.50;7.55;;;;;;;12.93;100.00;102112.38;5040973;28;20029;-74
2023/07/18 00:36:10;;;;;;;13.35;6.07;;;;;;;12.93;100.00;102111.53;5046312;28;20021;-74
2023/07/18 00:38:35;;;;;;;9.75;5.50;;;;;;;13.00;100.00;102119.25;5038292;28;20119;-74
2023/07/18 00:41:00;;;;;;;9.35;5.40;;;;;;;13.02;100.00;102127.13;5038590;28;20037;-74
2023/07/18 00:43:32;;;;;;;10.38;6.20;;;;;;;12.96;100.00;102117.59;5046973;28;20454;-74
2023/07/18 00:45:57;;;;;;;8.95;5.82;;;;;;;12.97;100.00;102113.22;5044080;28;20040;-74
2023/07/18 00:48:22;;;;;;;8.85;6.13;;;;;;;12.95;100.00;102112.34;5043284;28;20033;-74
2023/07/18 00:50:48;;;;;;;9.40;5.35;;;;;;;12.95;100.00;102109.72;5038316;28;20045;-74
2023/07/18 00:53:13;;;;;;;10.60;6.18;;;;;;;12.82;100.00;102103.81;5045310;28;20477;-74
2023/07/18 00:55:39;;;;;;;10.95;6.60;;;;;;;12.87;100.00;102107.22;5035580;28;20036;-74
2023/07/18 00:58:05;;;;;;;15.43;8.38;;;;;;;12.84;100.00;102108.13;5038730;28;20064;-74
2023/07/18 01:00:31;;;;;;;10.05;7.38;;;;;;;12.76;100.00;102091.66;5037811;28;20025;-73
2023/07/18 01:02:56;;;;;;;10.05;7.40;;;;;;;12.83;100.00;102097.69;5044718;28;20116;-74
2023/07/18 01:05:22;;;;;;;8.90;6.30;;;;;;;12.82;100.00;102099.44;5044948;28;20041;-74
2023/07/18 01:07:48;;;;;;;10.65;6.07;;;;;;;12.78;100.00;102095.13;5038003;28;20025;-74
2023/07/18 01:10:23;;;;;;;9.45;6.15;;;;;;;12.81;100.00;102102.94;5032422;28;20033;-74
2023/07/18 01:13:00;;;;;;;10.38;6.90;;;;;;;12.80;100.00;102095.97;5044671;28;20032;-74
2023/07/18 01:15:28;;;;;;;12.23;6.75;;;;;;;12.80;100.00;102097.72;5042669;28;20056;-74
2023/07/18 01:17:53;;;;;;;8.35;6.07;;;;;;;12.80;100.00;102101.19;5040335;28;20022;-74
2023/07/18 01:20:26;;;;;;;11.02;5.93;;;;;;;12.73;100.00;102099.56;5030844;28;20033;-74
2023/07/18 01:22:55;;;;;;;10.45;6.15;;;;;;;12.68;100.00;102088.25;5036311;28;20052;-74
2023/07/18 01:25:21;;;;;;;9.10;5.80;;;;;;;12.61;100.00;102089.22;5041974;28;20071;-74
2023/07/18 01:27:51;;;;;;;7.68;6.20;;;;;;;12.58;100.00;102082.28;5042514;28;20033;-74
2023/07/18 01:30:22;;;;;;;10.48;6.20;;;;;;;12.58;100.00;102089.25;5045294;28;20113;-74
2023/07/18 01:32:48;;;;;;;11.10;6.97;;;;;;;12.56;100.00;102091.91;5036638;28;20052;-74
2023/07/18 01:35:15;;;;;;;9.30;6.50;;;;;;;12.53;100.00;102086.72;5043379;28;20029;-74
2023/07/18 01:37:44;;;;;;;9.05;5.28;;;;;;;12.55;100.00;102079.69;5044364;28;20037;-74
2023/07/18 01:40:14;;;;;;;9.80;5.95;;;;;;;12.48;100.00;102080.66;5032782;28;20029;-74
2023/07/18 01:42:40;;;;;;;8.25;5.25;;;;;;;12.51;100.00;102085.84;5034002;28;20029;-74
2023/07/18 01:45:09;;;;;;;12.15;5.97;;;;;;;12.48;100.00;102080.66;5037054;28;20025;-74
2023/07/18 01:47:36;;;;;;;7.18;5.47;;;;;;;12.47;100.00;102081.56;5039254;28;20032;-74
2023/07/18 01:50:04;;;;;;;8.85;5.65;;;;;;;12.40;100.00;102075.53;5033689;28;20482;-74
2023/07/18 01:52:30;;;;;;;9.75;6.20;;;;;;;12.36;100.00;102073.84;5037889;28;20026;-74
2023/07/18 01:54:58;;;;;;;10.63;5.80;;;;;;;12.30;100.00;102065.19;5041865;28;20120;-74
2023/07/18 01:57:31;;;;;;;9.10;5.30;;;;;;;12.31;100.00;102080.00;5040365;28;20032;-74
2023/07/18 02:00:00;;;;;;;9.50;5.70;;;;;;;12.15;100.00;102053.16;5037500;28;20455;-74
2023/07/18 02:02:28;;;;;;;8.65;5.28;;;;;;;12.27;100.00;102070.47;5032426;28;20391;-74
2023/07/18 02:04:55;;;;;;;9.85;5.60;;;;;;;12.26;100.00;102066.97;5040765;28;20029;-74
2023/07/18 02:07:21;;;;;;;6.35;4.80;;;;;;;12.28;100.00;102072.19;5042216;28;20029;-74
2023/07/18 02:09:46;;;;;;;9.02;5.20;;;;;;;12.23;100.00;102060.88;5035529;28;20629;-74
2023/07/18 02:12:12;;;;;;;7.07;4.55;;;;;;;12.28;100.00;102065.19;5041962;28;20032;-74
2023/07/18 02:14:37;;;;;;;8.18;5.32;;;;;;;12.29;100.00;102058.22;5042199;28;20021;-74
2023/07/18 02:17:04;;;;;;;8.65;4.97;;;;;;;12.22;100.00;102056.56;5044368;28;20377;-74
2023/07/18 02:19:29;;;;;;;9.85;4.88;;;;;;;12.27;100.00;102053.03;5033587;28;20026;-74
2023/07/18 02:21:54;;;;;;;9.82;4.68;;;;;;;12.25;100.00;102056.53;5038536;28;20044;-74
2023/07/18 02:24:20;;;;;;;8.23;4.30;;;;;;;12.24;100.00;102062.66;5035790;28;20363;-74
2023/07/18 02:26:45;;;;;;;8.93;4.72;;;;;;;12.25;100.00;102061.75;5039885;28;20477;-74
2023/07/18 02:29:10;;;;;;;7.15;4.43;;;;;;;12.21;100.00;102058.31;5037310;28;20041;-74
2023/07/18 02:31:36;;;;;;;8.02;4.57;;;;;;;12.18;100.00;102066.19;5038864;28;20090;-74
2023/07/18 02:34:01;;;;;;;6.75;4.35;;;;;;;12.17;100.00;102056.63;5031926;28;20091;-74
2023/07/18 02:36:28;;;;;;;8.63;4.65;;;;;;;12.15;100.00;102056.63;5040284;28;20035;-74
2023/07/18 02:38:53;;;;;;;7.32;4.38;;;;;;;12.15;100.00;102064.47;5036590;28;20021;-74
2023/07/18 02:41:18;;;;;;;7.22;4.60;;;;;;;12.07;100.00;102061.06;5044485;28;20029;-74
2023/07/18 02:43:44;;;;;;;6.07;4.35;;;;;;;11.97;100.00;102058.53;5040195;28;20029;-74
2023/07/18 02:46:09;;;;;;;9.32;4.65;;;;;;;11.97;100.00;102063.78;5042442;28;20115;-74
2023/07/18 02:48:35;;;;;;;9.07;4.45;;;;;;;11.97;100.00;102061.16;5040269;28;20048;-74
2023/07/18 02:51:00;;;;;;;11.77;4.05;;;;;;;11.90;100.00;102062.97;5044665;28;20362;-74
2023/07/18 02:53:25;;;;;;;7.57;4.47;;;;;;;11.83;100.00;102049.06;5043982;28;20029;-74
2023/07/18 02:55:51;;;;;;;7.93;4.38;;;;;;;11.80;100.00;102056.06;5043802;28;20025;-74
2023/07/18 02:58:17;;;;;;;5.65;3.97;;;;;;;11.72;100.00;102049.16;5040433;28;20400;-74
2023/07/18 03:00:42;;;;;;;12.20;4.13;;;;;;;11.72;100.00;102058.75;5043173;28;20116;-74
2023/07/18 03:03:07;;;;;;;7.13;4.55;;;;;;;11.70;100.00;102050.06;5045682;28;20480;-74
2023/07/18 03:05:33;;;;;;;7.05;3.97;;;;;;;11.71;100.00;102049.19;5047624;28;20021;-74
2023/07/18 03:07:59;;;;;;;7.88;4.28;;;;;;;11.73;100.00;102055.25;5044781;28;20114;-74
2023/07/18 03:10:24;;;;;;;6.80;3.80;;;;;;;11.70;100.00;102050.06;5040191;28;20025;-74
2023/07/18 03:12:50;;;;;;;6.78;3.90;;;;;;;11.70;100.00;102045.69;5043732;28;20021;-74
2023/07/18 03:15:16;;;;;;;9.63;4.10;;;;;;;11.72;100.00;102049.16;5041755;28;20038;-73
2023/07/18 03:17:42;;;;;;;6.10;4.18;;;;;;;11.64;100.00;102053.63;5044631;28;20017;-74
2023/07/18 03:20:16;;;;;;;8.35;4.13;;;;;;;11.60;100.00;102059.72;5038850;28;20029;-74
2023/07/18 03:22:49;;;;;;;6.25;3.75;;;;;;;11.59;100.00;102058.00;5045901;28;20040;-74
2023/07/18 03:25:15;;;;;;;8.02;4.13;;;;;;;11.58;100.00;102044.97;5046256;28;20021;-74
2023/07/18 03:27:41;;;;;;;5.03;3.55;;;;;;;11.52;100.00;102043.25;5043260;28;20033;-74
2023/07/18 03:30:10;;;;;;;6.75;3.67;;;;;;;11.54;100.00;102054.53;5034534;28;20370;-74
2023/07/18 03:32:36;;;;;;;8.10;4.35;;;;;;;11.45;100.00;102045.06;5043483;28;20050;-74
2023/07/18 03:35:02;;;;;;;7.07;3.78;;;;;;;11.45;100.00;102052.03;5046552;28;20546;-74
2023/07/18 03:37:28;;;;;;;6.78;4.00;;;;;;;11.40;100.00;102046.81;5045965;28;20026;-74
2023/07/18 03:39:53;;;;;;;9.23;4.13;;;;;;;11.38;100.00;102042.47;5036254;28;20032;-74
2023/07/18 03:42:18;;;;;;;10.63;4.10;;;;;;;11.38;100.00;102040.75;5041285;28;20371;-74
2023/07/18 03:44:44;;;;;;;7.35;3.55;;;;;;;11.41;100.00;102045.06;5034121;28;20466;-73
2023/07/18 03:47:09;;;;;;;4.40;3.22;;;;;;;11.39;100.00;102054.69;5047398;28;20476;-74
2023/07/18 03:49:35;;;;;;;5.95;4.13;;;;;;;11.38;100.00;102048.59;5042534;28;20498;-74
2023/07/18 03:52:00;;;;;;;7.78;4.03;;;;;;;11.37;100.00;102045.97;5038328;28;20048;-74
2023/07/18 03:54:25;;;;;;;6.00;3.53;;;;;;;11.29;100.00;102043.44;5048393;28;20349;-74
2023/07/18 03:56:51;;;;;;;10.43;3.45;;;;;;;11.36;100.00;102054.69;5034196;28;20021;-73
2023/07/18 03:59:16;;;;;;;7.10;3.90;;;;;;;11.34;100.00;102049.47;5045232;28;20052;-74
2023/07/18 04:01:42;;;;;;;9.13;3.78;;;;;;;11.26;100.00;102038.25;5039496;28;20034;-74
2023/07/18 04:04:07;;;;;;;6.78;3.50;;;;;;;11.30;100.00;102042.56;5050246;28;20021;-74
2023/07/18 04:06:32;;;;;;;5.90;3.47;;;;;;;11.25;100.00;102045.22;5046607;28;20461;-74
2023/07/18 04:08:58;;;;;;;5.32;3.80;;;;;;;11.24;100.00;102045.19;5044266;28;20104;-74
2023/07/18 04:11:26;;;;;;;8.07;3.90;;;;;;;11.18;100.00;102029.56;5039692;28;20472;-74
2023/07/18 04:13:51;;;;;;;7.43;3.88;;;;;;;11.20;100.00;102027.84;5043479;28;20026;-74
2023/07/18 04:16:16;;;;;;;8.32;3.67;;;;;;;11.16;100.00;102018.31;5043025;28;20030;-74
2023/07/18 04:18:42;;;;;;;6.28;3.80;;;;;;;11.22;100.00;102026.97;5049267;28;20065;-73
2023/07/18 04:21:07;;;;;;;5.60;3.38;;;;;;;11.28;100.00;102020.84;5032824;28;20049;-74
2023/07/18 04:23:33;;;;;;;6.53;3.80;;;;;;;11.29;100.00;102014.72;5045101;28;20476;-74
2023/07/18 04:26:01;;;;;;;6.38;3.47;;;;;;;11.32;100.00;102019.91;5042162;28;20072;-74
2023/07/18 04:28:27;;;;;;;7.63;3.60;;;;;;;11.29;100.00;102008.63;5043074;28;20036;-74
2023/07/18 04:30:53;;;;;;;6.25;3.88;;;;;;;11.30;100.00;102020.81;5034087;28;20052;-74
2023/07/18 04:33:18;;;;;;;8.40;3.35;;;;;;;11.32;100.00;102025.16;5037365;28;20497;-74
2023/07/18 04:35:45;;;;;;;6.25;3.50;;;;;;;11.30;100.00;102008.63;5047701;28;20021;-73
2023/07/18 04:38:11;;;;;;;6.28;3.33;;;;;;;11.42;100.00;102016.34;5035259;28;20049;-74
2023/07/18 04:40:37;;;;;;;6.45;3.35;;;;;;;11.49;100.00;102025.00;5038046;28;20025;-74
2023/07/18 04:43:02;;;;;;;6.35;3.28;;;;;;;11.52;100.00;102011.06;5043930;28;20034;-74
2023/07/18 04:45:27;;;;;;;6.50;3.50;;;;;;;11.61;100.00;102018.81;5034551;28;20029;-74
2023/07/18 04:47:52;;;;;;;14.15;3.92;;;;;;;11.69;100.00;102020.47;5044713;28;20329;-74
2023/07/18 04:50:18;;;;;;;6.68;3.35;;;;;;;11.64;100.00;102009.22;5038677;28;20503;-74
2023/07/18 04:52:43;;;;;;;5.95;3.13;;;;;;;11.80;100.00;102025.56;5042704;28;20029;-74
2023/07/18 04:55:10;;;;;;;7.05;3.50;;;;;;;11.87;100.00;102026.41;5043091;28;20469;-73
2023/07/18 04:57:35;;;;;;;6.85;3.20;;;;;;;11.91;100.00;102023.78;5045280;28;20032;-74
2023/07/18 05:00:01;;;;;;;7.00;3.30;;;;;;;11.97;100.00;102016.72;5044148;28;20030;-74
2023/07/18 05:02:26;;;;;;;7.30;3.50;;;;;;;12.02;100.00;102020.19;5036130;28;20446;-74
2023/07/18 05:04:51;;;;;;;6.85;3.60;;;;;;;12.08;100.00;102012.28;5043107;28;20025;-74
2023/07/18 05:07:17;;;;;;;5.88;3.20;;;;;;;12.12;100.00;102019.19;5043501;28;20022;-74
2023/07/18 05:09:43;;;;;;;7.13;3.25;;;;;;;12.17;100.00;102007.81;5045022;28;20056;-74
2023/07/18 05:12:09;;;;;;;6.45;3.30;;;;;;;12.19;100.00;102013.88;5036616;28;20041;-74
2023/07/18 05:14:34;;;;;;;8.07;3.20;;;;;;;12.24;100.00;102010.34;5028311;28;20020;-74
2023/07/18 05:16:59;;;;;;;5.60;2.80;;;;;;;12.37;100.00;102022.41;5044948;28;20151;-73
2023/07/18 05:19:25;;;;;;;9.63;3.58;;;;;;;12.39;100.00;102004.91;5043190;28;20056;-74
2023/07/18 05:21:50;;;;;;;6.07;3.08;;;;;;;12.45;100.00;102015.31;5034446;28;20094;-74
2023/07/18 05:24:16;;;;;;;5.40;3.00;;;;;;;12.53;100.00;102013.47;5041119;28;20029;-74
2023/07/18 05:26:41;;;;;;;7.63;2.90;;;;;;;12.59;100.00;102015.16;5044470;28;20029;-74
2023/07/18 05:29:06;;;;;;;7.05;3.50;;;;;;;12.66;100.00;102014.19;5034768;28;20056;-74
2023/07/18 05:31:32;;;;;;;7.75;3.13;;;;;;;12.70;100.00;102012.38;5032836;28;20049;-74
2023/07/18 05:33:57;;;;;;;6.88;2.92;;;;;;;12.76;100.00;102007.06;5042878;28;20044;-74
2023/07/18 05:36:22;;;;;;;5.25;2.97;;;;;;;12.81;100.00;102007.84;5046154;28;20057;-74
2023/07/18 05:38:48;;;;;;;6.15;2.90;;;;;;;12.89;100.00;102004.25;5036713;28;20112;-74
2023/07/18 05:41:13;;;;;;;4.32;2.58;;;;;;;12.95;100.00;102008.53;5038280;28;20028;-74
2023/07/18 05:43:39;;;;;;;6.15;2.78;;;;;;;13.03;100.00;102008.41;5034953;28;20488;-74
2023/07/18 05:46:04;;;;;;;6.65;3.10;;;;;;;13.07;100.00;102002.25;5043800;28;20464;-74
2023/07/18 05:48:30;;;;;;;5.88;2.80;;;;;;;13.17;100.00;102019.53;5041244;28;20428;-74
2023/07/18 05:50:55;;;;;;;9.77;3.03;;;;;;;13.20;100.00;102008.16;5037742;28;20025;-74
2023/07/18 05:53:21;;;;;;;5.28;2.95;;;;;;;13.27;100.00;102018.53;5047306;28;20039;-74
2023/07/18 05:55:46;;;;;;;7.60;3.25;;;;;;;13.30;100.00;102008.00;5043641;28;20460;-74
2023/07/18 05:58:12;;;;;;;5.88;3.10;;;;;;;13.38;100.00;102007.91;5034135;28;20030;-74
2023/07/18 06:00:38;;;;;;;8.60;2.88;;;;;;;13.43;100.00;102013.91;5035598;28;20033;-73
2023/07/18 06:03:04;;;;;;;6.10;2.83;;;;;;;13.52;100.00;102019.00;5037456;28;20025;-74
2023/07/18 06:05:29;;;;;;;5.05;3.33;;;;;;;13.59;100.00;102030.25;5040691;28;20025;-73
2023/07/18 06:07:54;;;;;;;6.65;3.03;;;;;;;13.68;100.00;102030.09;5039601;28;20025;-74
2023/07/18 06:10:20;;;;;;;7.43;3.28;;;;;;;13.65;100.00;102003.94;5034084;28;20021;-74
2023/07/18 06:12:45;;;;;;;4.53;2.70;;;;;;;13.78;100.00;102015.94;5039381;28;20032;-74
2023/07/18 06:15:10;;;;;;;9.85;3.20;;;;;;;13.89;100.00;102018.34;5041140;28;20047;-74
2023/07/18 06:17:36;;;;;;;9.05;3.05;;;;;;;13.97;100.00;102021.69;5042961;28;20481;-73
2023/07/18 06:20:09;;;;;;;6.38;2.67;;;;;;;14.08;100.00;102023.25;5037599;28;20355;-74
2023/07/18 06:22:34;;;;;;;5.25;2.45;;;;;;;14.17;100.00;102023.06;5035780;28;20374;-74
2023/07/18 06:24:59;;;;;;;6.53;2.67;;;;;;;14.21;100.00;102009.84;5039572;28;20104;-74
2023/07/18 06:27:26;;;;;;;4.28;2.53;;;;;;;14.34;100.00;102013.09;5035974;28;20039;-74
2023/07/18 06:29:52;;;;;;;7.57;2.85;;;;;;;14.35;100.00;102011.34;5039381;28;20465;-74
2023/07/18 06:32:17;;;;;;;7.47;2.70;;;;;;;14.43;100.00;102019.94;5033047;28;20049;-74
2023/07/18 06:34:43;;;;;;;8.65;3.28;;;;;;;14.47;100.00;102024.22;5038604;28;20036;-73
2023/07/18 06:37:09;;;;;;;5.70;2.90;;;;;;;14.47;100.00;102008.47;5043830;28;20079;-73
2023/07/18 06:39:35;;;;;;;7.05;2.95;;;;;;;14.55;100.00;102014.47;5032651;28;20022;-73
2023/07/18 06:42:01;;;;;;;6.90;2.85;;;;;;;14.65;100.00;102016.00;5037907;28;20021;-74
2023/07/18 06:44:26;;;;;;;4.45;2.55;;;;;;;14.69;100.00;102011.53;5041241;28;20040;-74
2023/07/18 06:46:52;;;;;;;5.50;2.40;;;;;;;14.77;100.00;102020.09;5039900;28;20047;-73
2023/07/18 06:49:18;;;;;;;4.35;2.80;;;;;;;14.89;100.00;102014.56;5043691;28;20031;-73
2023/07/18 06:51:44;;;;;;;5.20;2.20;;;;;;;14.93;100.00;101999.59;5034959;28;20037;-74
2023/07/18 06:54:09;;;;;;;4.93;2.50;;;;;;;15.01;100.00;102007.28;5045076;28;20940;-74
2023/07/18 06:56:36;;;;;;;7.22;2.70;;;;;;;15.11;100.00;102007.06;5041340;28;20100;-73
2023/07/18 06:59:02;;;;;;;6.68;2.65;;;;;;;15.19;100.00;102005.09;5032207;28;20026;-73
2023/07/18 07:01:27;;;;;;;8.50;2.28;;;;;;;15.31;100.00;102006.56;5031609;28;20124;-74
2023/07/18 07:03:53;;;;;;;4.68;2.50;;;;;;;15.40;100.00;102015.97;5028561;28;20116;-74
2023/07/18 07:06:20;;;;;;;3.58;2.15;;;;;;;15.45;100.00;102011.47;5023162;28;20028;-73
2023/07/18 07:08:45;;;;;;;4.35;2.05;;;;;;;15.45;100.00;102009.72;5034119;28;20024;-73
2023/07/18 07:11:10;;;;;;;7.55;2.63;;;;;;;15.52;100.00;102022.69;5024852;28;20029;-73
2023/07/18 07:13:36;;;;;;;4.47;1.85;;;;;;;15.56;100.00;102021.72;5038601;28;20131;-74
2023/07/18 07:16:03;;;;;;;4.75;2.00;;;;;;;15.65;100.00;102021.47;5038318;28;20104;-74
2023/07/18 07:18:29;;;;;;;5.57;2.33;;;;;;;15.75;100.00;102019.50;5036782;28;20033;-74
2023/07/18 07:20:54;;;;;;;3.40;2.00;;;;;;;15.83;100.00;102013.16;5042631;28;20029;-74
2023/07/18 07:23:20;;;;;;;4.15;2.53;;;;;;;15.92;100.00;102017.28;5043051;28;20041;-73
2023/07/18 07:25:46;;;;;;;3.85;1.92;;;;;;;16.01;100.00;102010.91;5041401;28;20112;-74
2023/07/18 07:28:11;;;;;;;6.05;2.72;;;;;;;16.04;99.11;102008.22;5042617;28;20472;-74
2023/07/18 07:30:36;;;;;;;5.25;2.40;;;;;;;16.16;98.84;101997.34;5041023;28;20064;-73
2023/07/18 07:33:05;;;;;;;5.43;2.25;;;;;;;16.36;100.00;102009.94;5043083;28;20141;-74
2023/07/18 07:35:30;;;;;;;6.30;2.15;;;;;;;16.45;96.62;102016.69;5040511;28;20098;-74
2023/07/18 07:37:56;;;;;;;4.35;2.10;;;;;;;16.61;96.61;102013.56;5029499;28;20384;-73
2023/07/18 07:40:21;;;;;;;4.53;1.83;;;;;;;16.64;99.50;102004.69;5043502;28;20119;-73
2023/07/18 07:42:46;;;;;;;4.45;2.03;;;;;;;16.60;95.59;102003.06;5039916;28;20099;-74
2023/07/18 07:45:13;;;;;;;4.28;2.10;;;;;;;16.70;95.99;102004.50;5033890;28;20030;-74
2023/07/18 07:47:39;;;;;;;4.93;2.50;;;;;;;16.78;92.36;102004.34;5033904;28;20474;-74
2023/07/18 07:50:06;;;;;;;5.55;2.45;;;;;;;16.82;94.79;102005.94;5040743;28;20025;-74
2023/07/18 07:52:31;;;;;;;2.42;2.00;;;;;;;16.93;91.81;101997.69;5035339;28;20040;-73
2023/07/18 07:54:57;;;;;;;5.18;2.17;;;;;;;17.04;92.69;102003.50;5038217;28;20033;-72
2023/07/18 07:57:23;;;;;;;3.08;1.70;;;;;;;17.13;90.07;101997.06;5046816;28;20080;-73
2023/07/18 07:59:50;;;;;;;4.15;1.50;;;;;;;17.26;88.80;102004.50;5036821;28;20036;-73
2023/07/18 08:02:16;;;;;;;2.58;1.30;;;;;;;17.38;83.87;102010.31;5049237;28;20033;-73
2023/07/18 08:04:42;;;;;;;2.75;1.20;;;;;;;17.43;84.38;102003.09;5039784;28;20036;-73
2023/07/18 08:07:10;;;;;;;3.90;1.17;;;;;;;17.47;84.97;101996.81;5042090;28;20024;-74
2023/07/18 08:09:39;;;;;;;4.25;1.30;;;;;;;17.53;80.78;102000.09;5044807;28;20799;-74
2023/07/18 08:12:05;;;;;;;3.47;1.33;;;;;;;17.58;84.05;101999.09;5031366;28;20033;-74
2023/07/18 08:14:34;;;;;;;4.40;1.55;;;;;;;17.63;81.75;101999.81;5030864;28;20114;-74
2023/07/18 08:17:01;;;;;;;3.03;1.30;;;;;;;17.82;78.05;101998.28;5042348;28;20025;-74
2023/07/18 08:19:26;;;;;;;2.63;1.20;;;;;;;17.98;77.67;101998.56;5044106;28;20025;-74
2023/07/18 08:21:52;;;;;;;2.08;1.00;;;;;;;18.01;77.28;101996.66;5036300;28;20392;-74
2023/07/18 08:24:17;;;;;;;3.50;1.45;;;;;;;18.05;81.47;102000.09;5047066;28;20049;-73
2023/07/18 08:26:43;;;;;;;2.90;1.20;;;;;;;18.13;79.04;101986.59;5035903;28;20033;-75
2023/07/18 08:29:08;;;;;;;4.32;1.08;;;;;;;18.31;81.56;101987.69;5043489;28;20167;-75
2023/07/18 08:31:34;;;;;;;7.45;1.35;;;;;;;18.46;79.56;101984.47;5042351;28;20041;-75
2023/07/18 08:33:59;;;;;;;3.88;0.98;;;;;;;18.55;74.80;101981.47;5046843;28;20033;-75
2023/07/18 08:36:25;;;;;;;2.70;1.00;;;;;;;18.65;77.97;101980.19;5041701;28;20426;-74
2023/07/18 08:38:51;;;;;;;2.05;1.00;;;;;;;18.74;69.76;101978.13;5043687;28;20092;-72
2023/07/18 08:41:20;;;;;;;2.53;0.90;;;;;;;18.75;66.54;101979.88;5046534;28;20443;-74
2023/07/18 08:43:46;;;;;;;1.52;1.00;;;;;;;18.74;70.63;101973.72;5035659;28;20033;-74
2023/07/18 08:46:13;;;;;;;1.58;0.90;;;;;;;18.86;68.71;101981.16;5040600;28;20053;-75
2023/07/18 08:48:40;;;;;;;3.72;1.05;;;;;;;18.93;71.88;101974.72;5033387;28;20071;-75
2023/07/18 08:51:07;;;;;;;4.40;1.35;;;;;;;19.00;69.05;101969.16;5048420;28;20087;-75
2023/07/18 08:53:34;;;;;;;3.42;0.90;;;;;;;19.13;67.23;101965.97;5036282;28;20457;-75
2023/07/18 08:56:00;;;;;;;2.60;0.70;;;;;;;19.12;68.05;101956.31;5045083;28;20025;-75
2023/07/18 08:58:26;;;;;;;1.73;0.70;;;;;;;19.34;66.60;101964.19;5044141;28;20017;-75
2023/07/18 09:00:51;;;;;;;2.33;0.93;;;;;;;19.42;67.30;101962.09;5039244;28;20369;-75
2023/07/18 09:03:17;;;;;;;3.08;1.02;;;;;;;19.45;63.74;101947.88;5038706;28;20607;-74
2023/07/18 09:05:43;;;;;;;2.33;0.90;;;;;;;19.65;64.54;101957.59;5039818;28;20033;-75
2023/07/18 09:08:08;;;;;;;1.85;0.80;;;;;;;19.74;62.95;101951.91;5036015;28;20029;-75
2023/07/18 09:10:34;;;;;;;1.85;1.00;;;;;;;19.84;59.57;101947.94;5044389;28;20033;-75
2023/07/18 09:13:04;;;;;;;2.70;0.85;;;;;;;19.95;62.21;101944.81;5034997;28;20029;-74
2023/07/18 09:15:33;;;;;;;2.28;0.73;;;;;;;20.18;65.80;101951.72;5040268;28;20029;-74
2023/07/18 09:18:01;;;;;;;2.45;0.95;;;;;;;20.35;63.98;101946.47;5041005;28;20017;-74
2023/07/18 09:20:27;;;;;;;0.57;0.50;;;;;;;20.66;57.89;101944.19;5029106;28;20041;-74
2023/07/18 09:22:57;;;;;;;1.58;0.98;;;;;;;20.85;56.88;101942.34;5029933;28;20043;-74
2023/07/18 09:25:24;;;;;;;3.53;0.80;;;;;;;20.83;58.16;101940.72;5036982;28;20037;-75
2023/07/18 09:27:50;;;;;;;2.38;0.88;;;;;;;20.55;52.77;101918.22;5033899;28;20107;-74
2023/07/18 09:30:26;;;;;;;1.48;0.70;;;;;;;20.40;57.57;101934.81;5036494;28;20114;-76
2023/07/18 09:32:53;;;;;;;1.00;0.70;;;;;;;20.52;54.87;101934.25;5031325;28;20571;-76
2023/07/18 09:35:18;;;;;;;1.17;0.80;;;;;;;20.93;55.85;101920.78;5047984;28;20024;-76
2023/07/18 09:37:46;;;;;;;2.95;0.90;;;;;;;21.30;53.02;101918.94;5048809;28;20025;-76
2023/07/18 09:40:14;;;;;;;1.98;0.80;;;;;;;21.82;49.29;101926.84;5031714;28;20067;-76
2023/07/18 09:42:41;;;;;;;4.93;1.00;;;;;;;22.40;50.64;101923.69;5038377;28;20060;-75
2023/07/18 09:45:07;;;;;;;2.58;0.95;;;;;;;22.40;53.35;101926.34;5045828;28;20025;-76
2023/07/18 09:47:33;;;;;;;2.67;0.82;;;;;;;22.04;51.26;101921.19;5043380;28;20094;-74
2023/07/18 09:49:59;;;;;;;1.65;0.80;;;;;;;21.64;52.37;101926.00;5040943;28;20028;-76
2023/07/18 09:52:33;;;;;;;1.27;0.80;;;;;;;21.23;53.78;101921.88;5044673;28;20028;-76
2023/07/18 09:55:03;;;;;;;2.55;1.17;;;;;;;20.94;57.14;101933.97;5041159;28;20147;-75
2023/07/18 09:57:29;;;;;;;1.42;0.80;;;;;;;20.70;58.34;101929.84;5044639;28;20036;-75
2023/07/18 10:00:01;;;;;;;3.22;1.08;;;;;;;20.75;58.25;101925.19;5041969;28;20104;-75
2023/07/18 10:02:26;;;;;;;2.17;0.80;;;;;;;20.98;55.77;101906.34;5042065;28;20107;-75
2023/07/18 10:04:52;;;;;;;2.65;0.93;;;;;;;21.34;55.73;101907.22;5043156;28;20072;-75
2023/07/18 10:07:17;;;;;;;2.63;0.90;;;;;;;21.55;56.82;101910.56;5043646;28;20112;-74
2023/07/18 10:09:43;;;;;;;3.13;0.98;;;;;;;21.66;51.92;101903.75;5047045;28;20031;-75
2023/07/18 10:12:10;;;;;;;3.33;1.08;;;;;;;21.58;51.85;101905.09;5041336;28;20382;-75
2023/07/18 10:14:58;;;;;;;3.22;0.80;;;;;;;21.52;53.47;101893.03;5044130;28;20100;-74
2023/07/18 10:17:38;;;;;;;1.55;1.05;;;;;;;21.76;53.61;101877.59;5039558;28;20038;-75
2023/07/18 10:20:11;;;;;;;2.78;0.80;;;;;;;22.27;51.71;101877.47;5039530;28;20411;-76
2023/07/18 10:22:36;;;;;;;3.27;0.90;;;;;;;22.67;51.37;101873.41;5041323;28;20051;-76
2023/07/18 10:25:06;;;;;;;2.17;1.00;;;;;;;22.91;51.41;101874.63;5032740;28;20284;-76
2023/07/18 10:27:43;;;;;;;2.88;0.90;;;;;;;22.94;48.79;101878.94;5040752;28;20024;-76
2023/07/18 10:30:16;;;;;;;3.88;1.05;;;;;;;22.57;46.70;101889.03;5033100;28;20025;-74
2023/07/18 10:32:43;;;;;;;1.23;0.70;;;;;;;22.17;47.97;101878.00;5038997;28;20037;-75
2023/07/18 10:35:10;;;;;;;2.85;1.05;;;;;;;21.78;50.91;101870.41;5031578;28;20104;-75
2023/07/18 10:37:37;;;;;;;4.32;0.80;;;;;;;21.60;50.74;101872.25;5044375;28;20055;-74
2023/07/18 10:40:08;;;;;;;2.20;1.00;;;;;;;21.82;53.33;101868.44;5044160;28;20041;-75
2023/07/18 10:42:34;;;;;;;2.65;0.70;;;;;;;22.27;52.21;101869.50;5040891;28;20060;-74
2023/07/18 10:45:05;;;;;;;1.58;0.80;;;;;;;22.51;52.37;101870.78;5031098;28;20460;-74
2023/07/18 10:47:33;;;;;;;3.10;0.95;;;;;;;22.88;50.48;101871.28;5031343;28;20385;-74
2023/07/18 10:49:59;;;;;;;2.60;1.20;;;;;;;23.29;49.11;101858.22;5027183;28;20022;-74
2023/07/18 10:52:25;;;;;;;2.80;1.00;;;;;;;23.43;50.09;101854.69;5031134;28;20035;-75
2023/07/18 10:54:50;;;;;;;2.42;0.75;;;;;;;23.47;46.68;101861.53;5034665;28;20033;-74
2023/07/18 10:57:15;;;;;;;1.67;0.90;;;;;;;23.52;46.96;101862.13;5038904;28;20021;-75
2023/07/18 10:59:47;;;;;;;2.72;1.05;;;;;;;23.64;48.63;101859.63;5033626;28;20296;-75
2023/07/18 11:02:12;;;;;;;2.45;0.98;;;;;;;23.57;47.55;101849.34;5045065;28;20519;-75
2023/07/18 11:04:38;;;;;;;2.67;1.08;;;;;;;23.53;47.97;101854.97;5037537;28;20107;-74
2023/07/18 11:07:04;;;;;;;4.22;0.80;;;;;;;23.48;48.64;101849.97;5034749;28;20037;-74
2023/07/18 11:09:31;;;;;;;2.67;0.90;;;;;;;23.39;47.07;101861.16;5031976;28;20113;-74
2023/07/18 11:11:56;;;;;;;3.00;1.10;;;;;;;23.23;46.25;101845.28;5034419;28;20025;-74
2023/07/18 11:14:23;;;;;;;2.00;0.88;;;;;;;23.36;48.14;101843.56;5035892;28;20033;-74
2023/07/18 11:16:48;;;;;;;8.30;1.00;;;;;;;23.55;48.24;101839.78;5043979;28;20043;-75